Emigrant, Montana
Current Conditions -  °F | °C
As of 12:53 AM on Monday 24 Nov 2014 (Local Time) from KLVM Reporting Station
Overcast Overcast  
Wind Chill: 23°   Ceiling: 7000
Heat Index: 35°   Visibility: 10mi
Dew Point: 19°   Wind: 23mph
Humidity: 52%   Direction: 260°W
Pressure: 29.87"   Gusts: NA
Location:  45.34°N, 110.76°W
Report Text: KLVM 240753Z AUTO 26020KT 10SM BKN070 OVC090 02/M07 A2987 RMK AO2 PK WND 25031/0712 SLP129 T00171072
Loading
Personal Weather Stations






























Interactive Weather Map New forecast layout! Learn more

10-Day Weather Forecast

Advertisements
Track Severe Weather on mobile